sensor_id;sensor_type;location;lat;lon;timestamp;temperature;humidity
23452;DHT22;11898;51.130;6.780;2023-05-07T00:01:33;18.70;99.90
23452;DHT22;11898;51.130;6.780;2023-05-07T00:04:01;18.70;99.90
23452;DHT22;11898;51.130;6.780;2023-05-07T00:06:32;18.70;99.90
23452;DHT22;11898;51.130;6.780;2023-05-07T00:09:02;18.70;99.90
23452;DHT22;11898;51.130;6.780;2023-05-07T00:11:32;18.70;99.90
23452;DHT22;11898;51.130;6.780;2023-05-07T00:14:03;18.60;99.90
23452;DHT22;11898;51.130;6.780;2023-05-07T00:16:31;18.60;99.90
23452;DHT22;11898;51.130;6.780;2023-05-07T00:19:00;18.60;99.90
23452;DHT22;11898;51.130;6.780;2023-05-07T00:21:29;18.70;99.90
23452;DHT22;11898;51.130;6.780;2023-05-07T00:23:58;18.60;99.90
23452;DHT22;11898;51.130;6.780;2023-05-07T00:26:26;18.70;99.90
23452;DHT22;11898;51.130;6.780;2023-05-07T00:28:55;18.70;99.90
23452;DHT22;11898;51.130;6.780;2023-05-07T00:31:26;18.70;99.90
23452;DHT22;11898;51.130;6.780;2023-05-07T00:33:55;18.70;99.90
23452;DHT22;11898;51.130;6.780;2023-05-07T00:36:23;18.60;99.90
23452;DHT22;11898;51.130;6.780;2023-05-07T00:38:54;18.70;99.90
23452;DHT22;11898;51.130;6.780;2023-05-07T00:41:23;18.60;99.90
23452;DHT22;11898;51.130;6.780;2023-05-07T00:43:52;18.60;99.90
23452;DHT22;11898;51.130;6.780;2023-05-07T00:46:21;18.60;99.90
23452;DHT22;11898;51.130;6.780;2023-05-07T00:48:54;18.60;99.90
23452;DHT22;11898;51.130;6.780;2023-05-07T00:51:24;18.60;99.90
23452;DHT22;11898;51.130;6.780;2023-05-07T00:53:54;18.50;99.90
23452;DHT22;11898;51.130;6.780;2023-05-07T00:56:24;18.50;99.90
23452;DHT22;11898;51.130;6.780;2023-05-07T00:58:53;18.40;99.90
23452;DHT22;11898;51.130;6.780;2023-05-07T01:01:22;18.40;99.90
23452;DHT22;11898;51.130;6.780;2023-05-07T01:03:50;18.40;99.90
23452;DHT22;11898;51.130;6.780;2023-05-07T01:06:21;18.30;99.90
23452;DHT22;11898;51.130;6.780;2023-05-07T01:08:52;18.30;99.90
23452;DHT22;11898;51.130;6.780;2023-05-07T01:11:23;18.30;99.90
23452;DHT22;11898;51.130;6.780;2023-05-07T01:13:53;18.20;99.90
23452;DHT22;11898;51.130;6.780;2023-05-07T01:16:22;18.20;99.90
23452;DHT22;11898;51.130;6.780;2023-05-07T01:18:50;18.30;99.90
23452;DHT22;11898;51.130;6.780;2023-05-07T01:21:23;18.20;99.90
23452;DHT22;11898;51.130;6.780;2023-05-07T01:23:51;18.30;99.90
23452;DHT22;11898;51.130;6.780;2023-05-07T01:26:20;18.20;99.90
23452;DHT22;11898;51.130;6.780;2023-05-07T01:28:49;18.20;99.90
23452;DHT22;11898;51.130;6.780;2023-05-07T01:31:18;18.20;99.90
23452;DHT22;11898;51.130;6.780;2023-05-07T01:33:48;18.20;99.90
23452;DHT22;11898;51.130;6.780;2023-05-07T01:36:19;18.20;99.90
23452;DHT22;11898;51.130;6.780;2023-05-07T01:38:48;18.10;99.90
23452;DHT22;11898;51.130;6.780;2023-05-07T01:41:18;18.10;99.90
23452;DHT22;11898;51.130;6.780;2023-05-07T01:43:48;18.20;99.90
23452;DHT22;11898;51.130;6.780;2023-05-07T01:46:18;18.10;99.90
23452;DHT22;11898;51.130;6.780;2023-05-07T01:48:47;18.20;99.90
23452;DHT22;11898;51.130;6.780;2023-05-07T01:51:16;18.20;99.90
23452;DHT22;11898;51.130;6.780;2023-05-07T01:53:56;18.10;99.90
23452;DHT22;11898;51.130;6.780;2023-05-07T01:56:26;18.10;99.90
23452;DHT22;11898;51.130;6.780;2023-05-07T01:58:56;18.10;99.90
23452;DHT22;11898;51.130;6.780;2023-05-07T02:01:24;18.10;99.90
23452;DHT22;11898;51.130;6.780;2023-05-07T02:03:53;18.10;99.90
23452;DHT22;11898;51.130;6.780;2023-05-07T02:06:23;18.00;99.90
23452;DHT22;11898;51.130;6.780;2023-05-07T02:08:52;18.10;99.90
23452;DHT22;11898;51.130;6.780;2023-05-07T02:11:20;18.10;99.90
23452;DHT22;11898;51.130;6.780;2023-05-07T02:13:49;18.00;99.90
23452;DHT22;11898;51.130;6.780;2023-05-07T02:16:18;18.00;99.90
23452;DHT22;11898;51.130;6.780;2023-05-07T02:18:47;18.00;99.90
23452;DHT22;11898;51.130;6.780;2023-05-07T02:21:16;18.00;99.90
23452;DHT22;11898;51.130;6.780;2023-05-07T02:23:44;18.00;99.90
23452;DHT22;11898;51.130;6.780;2023-05-07T02:26:13;18.00;99.90
23452;DHT22;11898;51.130;6.780;2023-05-07T02:28:42;18.00;99.90
23452;DHT22;11898;51.130;6.780;2023-05-07T02:31:10;18.00;99.90
23452;DHT22;11898;51.130;6.780;2023-05-07T02:33:39;18.00;99.90
23452;DHT22;11898;51.130;6.780;2023-05-07T02:36:08;18.00;99.90
23452;DHT22;11898;51.130;6.780;2023-05-07T02:38:38;18.00;99.90
23452;DHT22;11898;51.130;6.780;2023-05-07T02:41:06;17.90;99.90
23452;DHT22;11898;51.130;6.780;2023-05-07T02:43:35;17.80;99.90
23452;DHT22;11898;51.130;6.780;2023-05-07T02:46:08;17.80;99.90
23452;DHT22;11898;51.130;6.780;2023-05-07T02:48:37;17.80;99.90
23452;DHT22;11898;51.130;6.780;2023-05-07T02:51:05;17.80;99.90
23452;DHT22;11898;51.130;6.780;2023-05-07T02:53:34;17.80;99.90
23452;DHT22;11898;51.130;6.780;2023-05-07T02:56:03;17.70;99.90
23452;DHT22;11898;51.130;6.780;2023-05-07T02:58:33;17.70;99.90
23452;DHT22;11898;51.130;6.780;2023-05-07T03:01:02;17.60;99.90
23452;DHT22;11898;51.130;6.780;2023-05-07T03:03:30;17.60;99.90
23452;DHT22;11898;51.130;6.780;2023-05-07T03:06:00;17.60;99.90
23452;DHT22;11898;51.130;6.780;2023-05-07T03:08:29;17.60;99.90
23452;DHT22;11898;51.130;6.780;2023-05-07T03:10:58;17.60;99.90
23452;DHT22;11898;51.130;6.780;2023-05-07T03:13:28;17.60;99.90
23452;DHT22;11898;51.130;6.780;2023-05-07T03:15:56;17.60;99.90
23452;DHT22;11898;51.130;6.780;2023-05-07T03:18:25;17.60;99.90
23452;DHT22;11898;51.130;6.780;2023-05-07T03:20:54;17.50;99.90
23452;DHT22;11898;51.130;6.780;2023-05-07T03:23:22;17.50;99.90
23452;DHT22;11898;51.130;6.780;2023-05-07T03:25:51;17.50;99.90
23452;DHT22;11898;51.130;6.780;2023-05-07T03:28:20;17.40;99.90
23452;DHT22;11898;51.130;6.780;2023-05-07T03:30:49;17.40;99.90
23452;DHT22;11898;51.130;6.780;2023-05-07T03:33:18;17.40;99.90
23452;DHT22;11898;51.130;6.780;2023-05-07T03:35:46;17.40;99.90
23452;DHT22;11898;51.130;6.780;2023-05-07T03:38:15;17.40;99.90
23452;DHT22;11898;51.130;6.780;2023-05-07T03:40:44;17.30;99.90
23452;DHT22;11898;51.130;6.780;2023-05-07T03:43:12;17.40;99.90
23452;DHT22;11898;51.130;6.780;2023-05-07T03:45:41;17.30;99.90
23452;DHT22;11898;51.130;6.780;2023-05-07T03:48:10;17.30;99.90
23452;DHT22;11898;51.130;6.780;2023-05-07T03:50:38;17.30;99.90
23452;DHT22;11898;51.130;6.780;2023-05-07T03:53:07;17.10;99.90
23452;DHT22;11898;51.130;6.780;2023-05-07T03:55:36;17.20;99.90
23452;DHT22;11898;51.130;6.780;2023-05-07T03:58:04;17.20;99.90
23452;DHT22;11898;51.130;6.780;2023-05-07T04:00:33;17.20;99.90
23452;DHT22;11898;51.130;6.780;2023-05-07T04:03:04;17.20;99.90
23452;DHT22;11898;51.130;6.780;2023-05-07T04:05:33;17.10;99.90
23452;DHT22;11898;51.130;6.780;2023-05-07T04:08:01;17.20;99.90
23452;DHT22;11898;51.130;6.780;2023-05-07T04:10:30;17.10;99.90
23452;DHT22;11898;51.130;6.780;2023-05-07T04:12:59;17.10;99.90
23452;DHT22;11898;51.130;6.780;2023-05-07T04:15:28;17.20;99.90
23452;DHT22;11898;51.130;6.780;2023-05-07T04:17:56;17.20;99.90
23452;DHT22;11898;51.130;6.780;2023-05-07T04:20:25;17.10;99.90
23452;DHT22;11898;51.130;6.780;2023-05-07T04:22:53;17.30;99.90
23452;DHT22;11898;51.130;6.780;2023-05-07T04:25:23;17.30;99.90
23452;DHT22;11898;51.130;6.780;2023-05-07T04:30:23;17.40;99.90
23452;DHT22;11898;51.130;6.780;2023-05-07T04:32:51;17.40;99.90
23452;DHT22;11898;51.130;6.780;2023-05-07T04:35:20;17.50;99.90
23452;DHT22;11898;51.130;6.780;2023-05-07T04:37:49;17.50;99.90
23452;DHT22;11898;51.130;6.780;2023-05-07T04:40:18;17.60;99.90
23452;DHT22;11898;51.130;6.780;2023-05-07T04:42:46;17.70;99.90
23452;DHT22;11898;51.130;6.780;2023-05-07T04:45:15;17.70;99.90
23452;DHT22;11898;51.130;6.780;2023-05-07T04:47:44;17.70;99.90
23452;DHT22;11898;51.130;6.780;2023-05-07T04:50:12;17.70;99.90
23452;DHT22;11898;51.130;6.780;2023-05-07T04:52:41;17.70;99.90
23452;DHT22;11898;51.130;6.780;2023-05-07T04:55:09;17.70;99.90
23452;DHT22;11898;51.130;6.780;2023-05-07T04:57:38;17.70;99.90
23452;DHT22;11898;51.130;6.780;2023-05-07T05:00:08;17.70;99.90
23452;DHT22;11898;51.130;6.780;2023-05-07T05:02:38;17.60;99.90
23452;DHT22;11898;51.130;6.780;2023-05-07T05:05:08;17.60;99.90
23452;DHT22;11898;51.130;6.780;2023-05-07T05:07:37;17.60;99.90
23452;DHT22;11898;51.130;6.780;2023-05-07T05:10:06;17.60;99.90
23452;DHT22;11898;51.130;6.780;2023-05-07T05:12:35;17.60;99.90
23452;DHT22;11898;51.130;6.780;2023-05-07T05:15:04;17.60;99.90
23452;DHT22;11898;51.130;6.780;2023-05-07T05:17:32;17.60;99.90
23452;DHT22;11898;51.130;6.780;2023-05-07T05:20:03;17.70;99.90
23452;DHT22;11898;51.130;6.780;2023-05-07T05:22:33;17.70;99.90
23452;DHT22;11898;51.130;6.780;2023-05-07T05:25:02;17.70;99.90
23452;DHT22;11898;51.130;6.780;2023-05-07T05:27:30;17.80;99.90
23452;DHT22;11898;51.130;6.780;2023-05-07T05:30:00;17.80;99.90
23452;DHT22;11898;51.130;6.780;2023-05-07T05:32:31;17.80;99.90
23452;DHT22;11898;51.130;6.780;2023-05-07T05:35:01;17.90;99.90
23452;DHT22;11898;51.130;6.780;2023-05-07T05:37:30;17.90;99.90
23452;DHT22;11898;51.130;6.780;2023-05-07T05:39:58;17.90;99.90
23452;DHT22;11898;51.130;6.780;2023-05-07T05:42:27;17.90;99.90
23452;DHT22;11898;51.130;6.780;2023-05-07T05:44:58;17.90;99.90
23452;DHT22;11898;51.130;6.780;2023-05-07T05:47:26;17.90;99.90
23452;DHT22;11898;51.130;6.780;2023-05-07T05:49:55;17.90;99.90
23452;DHT22;11898;51.130;6.780;2023-05-07T05:52:23;17.90;99.90
23452;DHT22;11898;51.130;6.780;2023-05-07T05:54:53;18.00;99.90
23452;DHT22;11898;51.130;6.780;2023-05-07T05:57:22;18.00;99.90
23452;DHT22;11898;51.130;6.780;2023-05-07T05:59:52;18.00;99.90
23452;DHT22;11898;51.130;6.780;2023-05-07T06:02:20;18.10;99.90
23452;DHT22;11898;51.130;6.780;2023-05-07T06:04:49;18.10;99.90
23452;DHT22;11898;51.130;6.780;2023-05-07T06:07:18;18.10;99.90
23452;DHT22;11898;51.130;6.780;2023-05-07T06:09:46;18.20;99.90
23452;DHT22;11898;51.130;6.780;2023-05-07T06:12:15;18.20;99.90
23452;DHT22;11898;51.130;6.780;2023-05-07T06:14:44;18.20;99.90
23452;DHT22;11898;51.130;6.780;2023-05-07T06:17:13;18.20;99.90
23452;DHT22;11898;51.130;6.780;2023-05-07T06:19:41;18.20;99.90
23452;DHT22;11898;51.130;6.780;2023-05-07T06:22:10;18.20;99.90
23452;DHT22;11898;51.130;6.780;2023-05-07T06:24:38;18.30;99.90
23452;DHT22;11898;51.130;6.780;2023-05-07T06:27:07;18.30;99.90
23452;DHT22;11898;51.130;6.780;2023-05-07T06:29:36;18.40;99.90
23452;DHT22;11898;51.130;6.780;2023-05-07T06:32:09;18.40;99.90
23452;DHT22;11898;51.130;6.780;2023-05-07T06:34:39;18.50;99.90
23452;DHT22;11898;51.130;6.780;2023-05-07T06:37:08;18.60;99.90
23452;DHT22;11898;51.130;6.780;2023-05-07T06:39:37;18.80;99.90
23452;DHT22;11898;51.130;6.780;2023-05-07T06:42:05;18.90;99.90
23452;DHT22;11898;51.130;6.780;2023-05-07T06:44:34;19.00;99.90
23452;DHT22;11898;51.130;6.780;2023-05-07T06:47:03;19.20;99.90
23452;DHT22;11898;51.130;6.780;2023-05-07T06:49:32;19.30;99.90
23452;DHT22;11898;51.130;6.780;2023-05-07T06:52:02;19.30;99.90
23452;DHT22;11898;51.130;6.780;2023-05-07T06:54:30;19.40;99.90
23452;DHT22;11898;51.130;6.780;2023-05-07T06:56:59;19.50;99.90
23452;DHT22;11898;51.130;6.780;2023-05-07T06:59:28;19.50;99.90
23452;DHT22;11898;51.130;6.780;2023-05-07T07:01:56;19.80;99.90
23452;DHT22;11898;51.130;6.780;2023-05-07T07:04:25;20.00;99.90
23452;DHT22;11898;51.130;6.780;2023-05-07T07:06:56;20.30;99.90
23452;DHT22;11898;51.130;6.780;2023-05-07T07:09:26;20.60;99.90
23452;DHT22;11898;51.130;6.780;2023-05-07T07:11:55;20.90;99.90
23452;DHT22;11898;51.130;6.780;2023-05-07T07:14:23;21.10;99.90
23452;DHT22;11898;51.130;6.780;2023-05-07T07:16:52;21.30;99.90
23452;DHT22;11898;51.130;6.780;2023-05-07T07:19:21;21.40;99.90
23452;DHT22;11898;51.130;6.780;2023-05-07T07:21:49;21.60;99.90
23452;DHT22;11898;51.130;6.780;2023-05-07T07:24:18;21.70;99.90
23452;DHT22;11898;51.130;6.780;2023-05-07T07:26:49;21.80;99.90
23452;DHT22;11898;51.130;6.780;2023-05-07T07:29:17;22.80;99.90
23452;DHT22;11898;51.130;6.780;2023-05-07T07:31:47;22.10;99.90
23452;DHT22;11898;51.130;6.780;2023-05-07T07:34:17;22.20;99.90
23452;DHT22;11898;51.130;6.780;2023-05-07T07:36:45;22.20;99.90
23452;DHT22;11898;51.130;6.780;2023-05-07T07:39:14;22.30;99.90
23452;DHT22;11898;51.130;6.780;2023-05-07T07:41:43;22.50;99.90
23452;DHT22;11898;51.130;6.780;2023-05-07T07:44:12;22.60;99.90
23452;DHT22;11898;51.130;6.780;2023-05-07T07:46:42;22.80;99.90
23452;DHT22;11898;51.130;6.780;2023-05-07T07:49:10;22.90;99.90
23452;DHT22;11898;51.130;6.780;2023-05-07T07:51:39;23.10;99.90
23452;DHT22;11898;51.130;6.780;2023-05-07T07:54:08;23.10;99.90
23452;DHT22;11898;51.130;6.780;2023-05-07T07:56:37;23.10;99.90
23452;DHT22;11898;51.130;6.780;2023-05-07T07:59:05;23.30;99.90
23452;DHT22;11898;51.130;6.780;2023-05-07T08:01:34;23.40;99.90
23452;DHT22;11898;51.130;6.780;2023-05-07T08:04:03;23.60;99.90
23452;DHT22;11898;51.130;6.780;2023-05-07T08:06:33;23.70;99.90
23452;DHT22;11898;51.130;6.780;2023-05-07T08:09:02;23.80;99.90
23452;DHT22;11898;51.130;6.780;2023-05-07T08:11:32;23.80;99.90
23452;DHT22;11898;51.130;6.780;2023-05-07T08:14:01;23.70;99.90
23452;DHT22;11898;51.130;6.780;2023-05-07T08:16:31;23.70;99.90
23452;DHT22;11898;51.130;6.780;2023-05-07T08:18:59;23.90;99.90
23452;DHT22;11898;51.130;6.780;2023-05-07T08:21:28;24.10;99.90
23452;DHT22;11898;51.130;6.780;2023-05-07T08:24:00;24.30;99.90
23452;DHT22;11898;51.130;6.780;2023-05-07T08:26:28;24.50;99.90
23452;DHT22;11898;51.130;6.780;2023-05-07T08:28:57;24.70;99.90
23452;DHT22;11898;51.130;6.780;2023-05-07T08:31:26;25.00;99.90
23452;DHT22;11898;51.130;6.780;2023-05-07T08:33:55;25.10;99.90
23452;DHT22;11898;51.130;6.780;2023-05-07T08:36:24;25.20;99.90
23452;DHT22;11898;51.130;6.780;2023-05-07T08:38:53;25.30;99.90
23452;DHT22;11898;51.130;6.780;2023-05-07T08:41:22;25.40;99.90
23452;DHT22;11898;51.130;6.780;2023-05-07T08:43:51;25.30;99.90
23452;DHT22;11898;51.130;6.780;2023-05-07T08:46:21;25.20;99.90
23452;DHT22;11898;51.130;6.780;2023-05-07T08:48:51;25.00;99.90
23452;DHT22;11898;51.130;6.780;2023-05-07T08:51:20;24.80;99.90
23452;DHT22;11898;51.130;6.780;2023-05-07T08:53:50;24.60;99.90
23452;DHT22;11898;51.130;6.780;2023-05-07T08:56:18;24.40;99.90
23452;DHT22;11898;51.130;6.780;2023-05-07T08:58:49;24.30;99.90
23452;DHT22;11898;51.130;6.780;2023-05-07T09:01:18;24.10;99.90
23452;DHT22;11898;51.130;6.780;2023-05-07T09:03:47;24.00;99.90
23452;DHT22;11898;51.130;6.780;2023-05-07T09:06:25;23.90;99.90
23452;DHT22;11898;51.130;6.780;2023-05-07T09:08:55;23.90;99.90
23452;DHT22;11898;51.130;6.780;2023-05-07T09:11:25;23.90;99.90
23452;DHT22;11898;51.130;6.780;2023-05-07T09:13:55;24.00;99.90
23452;DHT22;11898;51.130;6.780;2023-05-07T09:16:25;24.10;99.90
23452;DHT22;11898;51.130;6.780;2023-05-07T09:18:57;24.20;99.90
23452;DHT22;11898;51.130;6.780;2023-05-07T09:21:25;24.30;99.90
23452;DHT22;11898;51.130;6.780;2023-05-07T09:23:55;24.40;99.90
23452;DHT22;11898;51.130;6.780;2023-05-07T09:26:25;24.50;99.90
23452;DHT22;11898;51.130;6.780;2023-05-07T09:28:55;24.80;99.90
23452;DHT22;11898;51.130;6.780;2023-05-07T09:31:23;24.90;99.90
23452;DHT22;11898;51.130;6.780;2023-05-07T09:33:53;25.20;99.90
23452;DHT22;11898;51.130;6.780;2023-05-07T09:36:23;25.50;99.90
23452;DHT22;11898;51.130;6.780;2023-05-07T09:38:53;25.70;99.90
23452;DHT22;11898;51.130;6.780;2023-05-07T09:41:22;25.90;99.90
23452;DHT22;11898;51.130;6.780;2023-05-07T09:43:53;25.90;99.90
23452;DHT22;11898;51.130;6.780;2023-05-07T09:46:25;26.00;99.90
23452;DHT22;11898;51.130;6.780;2023-05-07T09:48:56;26.00;99.90
23452;DHT22;11898;51.130;6.780;2023-05-07T09:51:39;26.00;99.90
23452;DHT22;11898;51.130;6.780;2023-05-07T09:54:07;26.20;99.90
23452;DHT22;11898;51.130;6.780;2023-05-07T09:56:36;26.30;99.90
23452;DHT22;11898;51.130;6.780;2023-05-07T09:59:07;26.50;99.90
23452;DHT22;11898;51.130;6.780;2023-05-07T10:01:37;26.50;99.90
23452;DHT22;11898;51.130;6.780;2023-05-07T10:04:07;26.50;99.90
23452;DHT22;11898;51.130;6.780;2023-05-07T10:06:38;26.50;99.90
23452;DHT22;11898;51.130;6.780;2023-05-07T10:09:07;26.60;99.90
23452;DHT22;11898;51.130;6.780;2023-05-07T10:11:37;26.80;99.90
23452;DHT22;11898;51.130;6.780;2023-05-07T10:14:06;27.00;99.90
23452;DHT22;11898;51.130;6.780;2023-05-07T10:16:36;27.40;99.90
23452;DHT22;11898;51.130;6.780;2023-05-07T10:19:06;27.70;99.90
23452;DHT22;11898;51.130;6.780;2023-05-07T10:21:38;28.10;99.90
23452;DHT22;11898;51.130;6.780;2023-05-07T10:24:29;28.20;99.90
23452;DHT22;11898;51.130;6.780;2023-05-07T10:26:59;28.00;99.90
23452;DHT22;11898;51.130;6.780;2023-05-07T10:29:34;28.00;99.90
23452;DHT22;11898;51.130;6.780;2023-05-07T10:32:33;28.00;99.90
23452;DHT22;11898;51.130;6.780;2023-05-07T10:34:56;28.00;99.90
23452;DHT22;11898;51.130;6.780;2023-05-07T10:37:26;28.00;99.90
23452;DHT22;11898;51.130;6.780;2023-05-07T10:39:55;28.00;99.90
23452;DHT22;11898;51.130;6.780;2023-05-07T10:42:25;28.00;99.90
23452;DHT22;11898;51.130;6.780;2023-05-07T10:44:53;28.00;99.90
23452;DHT22;11898;51.130;6.780;2023-05-07T10:47:22;28.20;99.90
23452;DHT22;11898;51.130;6.780;2023-05-07T10:52:35;28.00;99.90
23452;DHT22;11898;51.130;6.780;2023-05-07T10:57:49;27.90;99.90
23452;DHT22;11898;51.130;6.780;2023-05-07T11:05:33;28.00;99.90
23452;DHT22;11898;51.130;6.780;2023-05-07T11:08:04;28.10;99.90
23452;DHT22;11898;51.130;6.780;2023-05-07T11:10:53;28.10;99.90
23452;DHT22;11898;51.130;6.780;2023-05-07T11:13:46;28.00;99.90
23452;DHT22;11898;51.130;6.780;2023-05-07T11:16:25;27.80;99.90
23452;DHT22;11898;51.130;6.780;2023-05-07T11:18:57;27.70;99.90
23452;DHT22;11898;51.130;6.780;2023-05-07T11:21:37;27.70;99.90
23452;DHT22;11898;51.130;6.780;2023-05-07T11:24:07;27.70;99.90
23452;DHT22;11898;51.130;6.780;2023-05-07T11:26:44;27.70;99.90
23452;DHT22;11898;51.130;6.780;2023-05-07T11:29:18;27.70;99.90
23452;DHT22;11898;51.130;6.780;2023-05-07T11:31:53;27.60;99.90
23452;DHT22;11898;51.130;6.780;2023-05-07T11:34:23;27.60;99.90
23452;DHT22;11898;51.130;6.780;2023-05-07T11:36:53;27.90;99.90
23452;DHT22;11898;51.130;6.780;2023-05-07T11:39:31;28.10;99.90
23452;DHT22;11898;51.130;6.780;2023-05-07T11:42:00;28.20;99.90
23452;DHT22;11898;51.130;6.780;2023-05-07T11:44:45;28.20;99.90
23452;DHT22;11898;51.130;6.780;2023-05-07T11:47:19;28.20;99.90
23452;DHT22;11898;51.130;6.780;2023-05-07T11:49:53;28.00;99.90
23452;DHT22;11898;51.130;6.780;2023-05-07T11:52:23;27.80;99.90
23452;DHT22;11898;51.130;6.780;2023-05-07T11:54:54;27.70;99.90
23452;DHT22;11898;51.130;6.780;2023-05-07T11:57:24;27.60;99.90
23452;DHT22;11898;51.130;6.780;2023-05-07T11:59:57;27.60;99.90
23452;DHT22;11898;51.130;6.780;2023-05-07T12:02:26;27.60;99.90
23452;DHT22;11898;51.130;6.780;2023-05-07T12:04:55;27.80;99.90
23452;DHT22;11898;51.130;6.780;2023-05-07T12:07:24;27.90;99.90
23452;DHT22;11898;51.130;6.780;2023-05-07T12:09:54;28.10;99.90
23452;DHT22;11898;51.130;6.780;2023-05-07T12:12:22;28.10;99.90
23452;DHT22;11898;51.130;6.780;2023-05-07T12:14:51;27.90;99.90
23452;DHT22;11898;51.130;6.780;2023-05-07T12:17:20;27.80;99.90
23452;DHT22;11898;51.130;6.780;2023-05-07T12:19:49;27.70;99.90
23452;DHT22;11898;51.130;6.780;2023-05-07T12:22:18;27.60;99.90
23452;DHT22;11898;51.130;6.780;2023-05-07T12:24:49;27.60;99.90
23452;DHT22;11898;51.130;6.780;2023-05-07T12:27:18;27.60;99.90
23452;DHT22;11898;51.130;6.780;2023-05-07T12:29:48;27.50;99.90
23452;DHT22;11898;51.130;6.780;2023-05-07T12:32:21;27.50;99.90
23452;DHT22;11898;51.130;6.780;2023-05-07T12:34:50;27.30;99.90
23452;DHT22;11898;51.130;6.780;2023-05-07T12:37:25;27.20;99.90
23452;DHT22;11898;51.130;6.780;2023-05-07T12:40:06;27.10;99.90
23452;DHT22;11898;51.130;6.780;2023-05-07T12:42:39;26.90;99.90
23452;DHT22;11898;51.130;6.780;2023-05-07T12:45:11;26.80;99.90
23452;DHT22;11898;51.130;6.780;2023-05-07T12:47:45;26.70;99.90
23452;DHT22;11898;51.130;6.780;2023-05-07T12:50:15;26.60;99.90
23452;DHT22;11898;51.130;6.780;2023-05-07T12:52:45;26.60;99.90
23452;DHT22;11898;51.130;6.780;2023-05-07T12:55:16;26.60;99.90
23452;DHT22;11898;51.130;6.780;2023-05-07T12:57:49;26.70;99.90
23452;DHT22;11898;51.130;6.780;2023-05-07T13:00:33;26.70;99.90
23452;DHT22;11898;51.130;6.780;2023-05-07T13:03:02;26.70;99.90
23452;DHT22;11898;51.130;6.780;2023-05-07T13:05:32;26.80;99.90
23452;DHT22;11898;51.130;6.780;2023-05-07T13:08:01;26.80;99.90
23452;DHT22;11898;51.130;6.780;2023-05-07T13:10:29;26.80;99.90
23452;DHT22;11898;51.130;6.780;2023-05-07T13:12:58;26.80;99.90
23452;DHT22;11898;51.130;6.780;2023-05-07T13:15:27;26.90;99.90
23452;DHT22;11898;51.130;6.780;2023-05-07T13:17:58;26.90;99.90
23452;DHT22;11898;51.130;6.780;2023-05-07T13:20:27;27.00;99.90
23452;DHT22;11898;51.130;6.780;2023-05-07T13:22:56;27.10;99.90
23452;DHT22;11898;51.130;6.780;2023-05-07T13:25:25;27.10;99.90
23452;DHT22;11898;51.130;6.780;2023-05-07T13:27:53;27.00;99.90
23452;DHT22;11898;51.130;6.780;2023-05-07T13:30:24;26.90;99.90
23452;DHT22;11898;51.130;6.780;2023-05-07T13:32:55;26.90;99.90
23452;DHT22;11898;51.130;6.780;2023-05-07T13:35:24;26.90;99.90
23452;DHT22;11898;51.130;6.780;2023-05-07T13:37:53;26.90;99.90
23452;DHT22;11898;51.130;6.780;2023-05-07T13:40:23;26.80;99.90
23452;DHT22;11898;51.130;6.780;2023-05-07T13:42:51;26.70;99.90
23452;DHT22;11898;51.130;6.780;2023-05-07T13:45:20;26.60;99.90
23452;DHT22;11898;51.130;6.780;2023-05-07T13:47:49;26.60;99.90
23452;DHT22;11898;51.130;6.780;2023-05-07T13:50:18;26.50;99.90
23452;DHT22;11898;51.130;6.780;2023-05-07T13:52:47;26.50;99.90
23452;DHT22;11898;51.130;6.780;2023-05-07T13:55:19;26.40;99.90
23452;DHT22;11898;51.130;6.780;2023-05-07T13:57:53;26.40;99.90
23452;DHT22;11898;51.130;6.780;2023-05-07T14:00:20;26.50;99.90
23452;DHT22;11898;51.130;6.780;2023-05-07T14:02:48;26.30;99.90
23452;DHT22;11898;51.130;6.780;2023-05-07T14:05:17;26.10;99.90
23452;DHT22;11898;51.130;6.780;2023-05-07T14:07:46;26.00;99.90
23452;DHT22;11898;51.130;6.780;2023-05-07T14:10:17;25.90;99.90
23452;DHT22;11898;51.130;6.780;2023-05-07T14:12:46;25.70;99.90
23452;DHT22;11898;51.130;6.780;2023-05-07T14:15:16;25.60;99.90
23452;DHT22;11898;51.130;6.780;2023-05-07T14:17:45;25.50;99.90
23452;DHT22;11898;51.130;6.780;2023-05-07T14:20:14;25.30;99.90
23452;DHT22;11898;51.130;6.780;2023-05-07T14:22:46;25.20;99.90
23452;DHT22;11898;51.130;6.780;2023-05-07T14:25:15;25.10;99.90
23452;DHT22;11898;51.130;6.780;2023-05-07T14:27:44;25.00;99.90
23452;DHT22;11898;51.130;6.780;2023-05-07T14:30:13;24.90;99.90
23452;DHT22;11898;51.130;6.780;2023-05-07T14:32:41;24.90;99.90
23452;DHT22;11898;51.130;6.780;2023-05-07T14:35:10;25.00;99.90
23452;DHT22;11898;51.130;6.780;2023-05-07T14:37:39;25.00;99.90
23452;DHT22;11898;51.130;6.780;2023-05-07T14:40:09;25.00;99.90
23452;DHT22;11898;51.130;6.780;2023-05-07T14:42:38;25.00;99.90
23452;DHT22;11898;51.130;6.780;2023-05-07T14:45:07;25.00;99.90
23452;DHT22;11898;51.130;6.780;2023-05-07T14:47:38;25.00;99.90
23452;DHT22;11898;51.130;6.780;2023-05-07T14:50:08;24.90;99.90
23452;DHT22;11898;51.130;6.780;2023-05-07T14:52:38;24.70;99.90
23452;DHT22;11898;51.130;6.780;2023-05-07T14:55:07;24.50;99.90
23452;DHT22;11898;51.130;6.780;2023-05-07T14:57:37;24.30;99.90
23452;DHT22;11898;51.130;6.780;2023-05-07T15:00:12;24.10;99.90
23452;DHT22;11898;51.130;6.780;2023-05-07T15:02:41;24.00;99.90
23452;DHT22;11898;51.130;6.780;2023-05-07T15:05:28;23.90;99.90
23452;DHT22;11898;51.130;6.780;2023-05-07T15:08:05;23.80;99.90
23452;DHT22;11898;51.130;6.780;2023-05-07T15:10:40;23.80;99.90
23452;DHT22;11898;51.130;6.780;2023-05-07T15:13:21;23.80;99.90
23452;DHT22;11898;51.130;6.780;2023-05-07T15:15:55;23.80;99.90
23452;DHT22;11898;51.130;6.780;2023-05-07T15:18:24;23.70;99.90
23452;DHT22;11898;51.130;6.780;2023-05-07T15:20:53;23.70;99.90
23452;DHT22;11898;51.130;6.780;2023-05-07T15:23:22;23.80;99.90
23452;DHT22;11898;51.130;6.780;2023-05-07T15:25:58;23.90;99.90
23452;DHT22;11898;51.130;6.780;2023-05-07T15:28:48;23.90;99.90
23452;DHT22;11898;51.130;6.780;2023-05-07T15:31:18;24.00;99.90
23452;DHT22;11898;51.130;6.780;2023-05-07T15:33:48;24.10;99.90
23452;DHT22;11898;51.130;6.780;2023-05-07T15:36:20;24.10;99.90
23452;DHT22;11898;51.130;6.780;2023-05-07T15:39:21;24.20;99.90
23452;DHT22;11898;51.130;6.780;2023-05-07T15:41:51;24.20;99.90
23452;DHT22;11898;51.130;6.780;2023-05-07T15:44:21;24.30;99.90
23452;DHT22;11898;51.130;6.780;2023-05-07T15:46:52;24.30;99.90
23452;DHT22;11898;51.130;6.780;2023-05-07T15:49:22;24.40;99.90
23452;DHT22;11898;51.130;6.780;2023-05-07T15:51:50;24.40;99.90
23452;DHT22;11898;51.130;6.780;2023-05-07T15:54:21;24.50;99.90
23452;DHT22;11898;51.130;6.780;2023-05-07T15:56:51;24.50;99.90
23452;DHT22;11898;51.130;6.780;2023-05-07T15:59:43;24.50;99.90
23452;DHT22;11898;51.130;6.780;2023-05-07T16:02:12;24.50;99.90